createdAt,value
2022-12-01T00:01:45.888Z,41.50
2022-12-01T00:04:14.647Z,34.00
2022-12-01T00:06:44.120Z,36.33
2022-12-01T00:09:31.320Z,42.50
2022-12-01T00:12:00.783Z,46.33
2022-12-01T00:14:29.483Z,38.50
2022-12-01T00:16:59.100Z,34.67
2022-12-01T00:19:29.120Z,35.00
2022-12-01T00:21:57.942Z,27.50
2022-12-01T00:24:27.434Z,35.33
2022-12-01T00:26:56.133Z,25.00
2022-12-01T00:29:25.694Z,33.00
2022-12-01T00:31:54.440Z,36.00
2022-12-01T00:34:28.253Z,32.00
2022-12-01T00:36:57.059Z,23.50
2022-12-01T00:39:25.777Z,34.50
2022-12-01T00:41:53.577Z,28.50
2022-12-01T00:44:23.027Z,35.67
2022-12-01T00:46:50.758Z,32.50
2022-12-01T00:49:19.646Z,35.50
2022-12-01T00:51:48.321Z,31.50
2022-12-01T00:54:16.979Z,33.00
2022-12-01T00:56:45.727Z,38.00
2022-12-01T00:59:14.434Z,34.50
2022-12-01T01:01:43.305Z,35.50
2022-12-01T01:04:12.331Z,35.50
2022-12-01T01:06:43.512Z,38.00
2022-12-01T01:09:13.946Z,36.50
2022-12-01T01:11:44.064Z,40.00
2022-12-01T01:14:15.485Z,34.33
2022-12-01T01:16:45.121Z,39.67
2022-12-01T01:19:14.677Z,37.67
2022-12-01T01:21:43.742Z,33.50
2022-12-01T01:24:13.186Z,34.33
2022-12-01T01:26:42.742Z,33.00
2022-12-01T01:29:11.523Z,33.00
2022-12-01T01:31:40.315Z,33.50
2022-12-01T01:34:09.017Z,33.00
2022-12-01T01:36:37.704Z,32.50
2022-12-01T01:39:06.390Z,28.00
2022-12-01T01:41:34.524Z,40.00
2022-12-01T01:44:04.077Z,35.50
2022-12-01T01:46:35.441Z,37.50
2022-12-01T01:49:14.010Z,36.00
2022-12-01T01:51:52.914Z,43.00
2022-12-01T01:54:38.102Z,40.00
2022-12-01T01:57:11.736Z,36.33
2022-12-01T01:59:51.735Z,45.00
2022-12-01T02:02:20.543Z,44.00
2022-12-01T02:04:58.865Z,41.00
2022-12-01T02:07:28.519Z,40.00
2022-12-01T02:09:57.531Z,36.00
2022-12-01T02:12:41.808Z,40.67
2022-12-01T02:15:34.071Z,40.33
2022-12-01T02:18:37.767Z,44.00
2022-12-01T02:22:20.387Z,40.50
2022-12-01T02:25:29.800Z,42.00
2022-12-01T02:28:53.636Z,39.00
2022-12-01T02:32:43.650Z,42.00
2022-12-01T02:35:35.822Z,39.00
2022-12-01T02:38:39.390Z,34.00
2022-12-01T02:41:25.974Z,37.50
2022-12-01T02:44:27.787Z,50.50
2022-12-01T02:47:12.381Z,54.33
2022-12-01T02:49:49.819Z,65.33
2022-12-01T02:52:20.882Z,48.00
2022-12-01T02:54:51.165Z,41.33
2022-12-01T02:57:21.030Z,46.50
2022-12-01T02:59:56.180Z,42.00
2022-12-01T03:03:04.516Z,40.00
2022-12-01T03:06:05.794Z,38.33
2022-12-01T03:09:37.938Z,41.00
2022-12-01T03:12:24.991Z,41.00
2022-12-01T03:16:16.900Z,31.00
2022-12-01T03:18:57.781Z,38.00
2022-12-01T03:21:42.138Z,35.00
2022-12-01T03:24:20.634Z,38.00
2022-12-01T03:26:57.284Z,41.50
2022-12-01T03:29:43.425Z,39.50
2022-12-01T03:32:42.563Z,47.00
2022-12-01T03:35:43.215Z,44.50
2022-12-01T03:38:19.396Z,44.50
2022-12-01T03:40:52.954Z,45.00
2022-12-01T03:43:30.692Z,46.00
2022-12-01T03:46:44.793Z,48.00
2022-12-01T03:49:17.903Z,53.50
2022-12-01T03:52:21.745Z,37.33
2022-12-01T03:55:25.304Z,31.50
2022-12-01T03:58:01.948Z,37.00
2022-12-01T04:00:31.970Z,32.50
2022-12-01T04:03:04.591Z,41.00
2022-12-01T04:05:35.583Z,48.50
2022-12-01T04:08:05.413Z,56.33
2022-12-01T04:10:35.095Z,56.00
2022-12-01T04:13:03.964Z,54.50
2022-12-01T04:15:32.660Z,55.00
2022-12-01T04:18:02.134Z,55.67
2022-12-01T04:20:29.880Z,49.00
2022-12-01T04:22:58.576Z,53.50
2022-12-01T04:25:27.328Z,49.00
2022-12-01T04:27:55.995Z,45.00
2022-12-01T04:30:24.690Z,43.50
2022-12-01T04:32:52.450Z,38.00
2022-12-01T04:35:21.911Z,50.00
2022-12-01T04:37:50.623Z,44.00
2022-12-01T04:40:19.535Z,47.00
2022-12-01T04:42:48.185Z,45.00
2022-12-01T04:45:16.885Z,44.50
2022-12-01T04:47:46.378Z,46.33
2022-12-01T04:50:15.203Z,45.50
2022-12-01T04:52:42.999Z,48.50
2022-12-01T04:55:12.540Z,52.67
2022-12-01T04:57:42.454Z,58.67
2022-12-01T05:00:13.505Z,55.50
2022-12-01T05:02:43.788Z,66.00
2022-12-01T05:05:14.332Z,64.00
2022-12-01T05:07:44.603Z,61.00
2022-12-01T05:10:14.597Z,68.67
2022-12-01T05:12:44.442Z,69.33
2022-12-01T05:15:14.626Z,65.00
2022-12-01T05:17:44.735Z,64.33
2022-12-01T05:20:44.121Z,64.00
2022-12-01T05:23:20.002Z,58.00
2022-12-01T05:25:49.564Z,62.00
2022-12-01T05:28:20.227Z,59.00
2022-12-01T05:30:51.226Z,64.33
2022-12-01T05:33:22.976Z,66.33
2022-12-01T05:35:52.807Z,64.00
2022-12-01T05:38:22.610Z,62.33
2022-12-01T05:40:56.572Z,56.50
2022-12-01T05:43:29.023Z,45.50
2022-12-01T05:45:59.074Z,46.50
2022-12-01T05:48:28.665Z,42.67
2022-12-01T05:50:58.120Z,40.67
2022-12-01T05:53:25.956Z,37.00
2022-12-01T05:55:56.120Z,44.33
2022-12-01T05:58:23.910Z,49.00
2022-12-01T06:00:51.784Z,60.00
2022-12-01T06:03:21.288Z,58.33
2022-12-01T06:05:51.470Z,51.00
2022-12-01T06:08:19.808Z,46.00
2022-12-01T06:10:48.579Z,47.00
2022-12-01T06:13:17.354Z,48.33
2022-12-01T06:15:46.065Z,52.50
2022-12-01T06:18:15.561Z,56.33
2022-12-01T06:20:45.155Z,58.67
2022-12-01T06:23:15.102Z,65.33
2022-12-01T06:25:44.827Z,57.33
2022-12-01T06:28:14.749Z,54.67
2022-12-01T06:30:44.313Z,52.50
2022-12-01T06:33:13.059Z,51.50
2022-12-01T06:35:42.739Z,59.33
2022-12-01T06:38:12.491Z,74.00
2022-12-01T06:40:44.359Z,68.67
2022-12-01T06:43:14.137Z,62.67
2022-12-01T06:45:41.955Z,54.50
2022-12-01T06:48:12.782Z,45.67
2022-12-01T06:50:42.718Z,50.00
2022-12-01T06:53:12.255Z,48.33
2022-12-01T06:55:40.386Z,48.00
2022-12-01T06:58:09.271Z,46.00
2022-12-01T07:00:38.923Z,55.00
2022-12-01T07:03:08.447Z,49.00
2022-12-01T07:05:36.573Z,47.50
2022-12-01T07:08:06.999Z,54.33
2022-12-01T07:10:36.709Z,55.00
2022-12-01T07:13:04.983Z,49.00
2022-12-01T07:15:34.416Z,48.00
2022-12-01T07:18:03.980Z,42.33
2022-12-01T07:20:32.692Z,44.00
2022-12-01T07:23:00.417Z,42.00
2022-12-01T07:25:29.999Z,74.00
2022-12-01T07:27:59.618Z,91.67
2022-12-01T07:30:29.388Z,71.67
2022-12-01T07:32:59.861Z,94.67
2022-12-01T07:35:29.328Z,62.33
2022-12-01T07:37:58.827Z,51.67
2022-12-01T07:40:27.508Z,50.50
2022-12-01T07:42:56.226Z,46.00
2022-12-01T07:45:25.689Z,45.33
2022-12-01T07:47:55.230Z,43.00
2022-12-01T07:50:24.750Z,47.33
2022-12-01T07:52:54.307Z,57.00
2022-12-01T07:55:23.943Z,91.67
2022-12-01T07:57:53.769Z,65.67
2022-12-01T08:00:22.842Z,68.00
2022-12-01T08:02:52.386Z,67.33
2022-12-01T08:05:22.061Z,65.67
2022-12-01T08:07:54.290Z,66.00
2022-12-01T08:10:23.836Z,61.33
2022-12-01T08:12:53.354Z,60.67
2022-12-01T08:15:22.968Z,56.00
2022-12-01T08:17:52.514Z,55.00
2022-12-01T08:20:24.084Z,58.67
2022-12-01T08:22:52.039Z,1.00
2022-12-01T08:25:21.618Z,60.00
2022-12-01T08:27:51.140Z,57.00
2022-12-01T08:30:20.809Z,61.67
2022-12-01T08:32:53.703Z,58.00
2022-12-01T08:35:24.061Z,57.33
2022-12-01T08:37:54.575Z,54.67
2022-12-01T08:40:24.158Z,54.33
2022-12-01T08:42:53.847Z,50.67
2022-12-01T08:45:23.399Z,48.67
2022-12-01T08:47:59.029Z,51.00
2022-12-01T08:50:29.366Z,51.67
2022-12-01T08:52:58.831Z,51.00
2022-12-01T08:55:28.276Z,49.00
2022-12-01T08:57:56.973Z,46.50
2022-12-01T09:00:25.727Z,39.00
2022-12-01T09:02:54.478Z,36.00
2022-12-01T09:05:23.911Z,31.00
2022-12-01T09:08:12.567Z,36.67
2022-12-01T09:10:42.046Z,33.67
2022-12-01T09:13:11.057Z,32.00
2022-12-01T09:15:39.725Z,37.50
2022-12-01T09:18:09.264Z,33.00
2022-12-01T09:20:38.685Z,37.67
2022-12-01T09:23:07.302Z,38.00
2022-12-01T09:25:36.905Z,46.33
2022-12-01T09:28:05.872Z,40.00
2022-12-01T09:30:36.618Z,37.00
2022-12-01T09:33:06.100Z,39.67
2022-12-01T09:35:35.540Z,32.00
2022-12-01T09:38:04.789Z,39.33
2022-12-01T09:40:43.251Z,39.00
2022-12-01T09:43:37.892Z,35.33
2022-12-01T09:46:22.651Z,43.00
2022-12-01T09:48:57.460Z,39.00
2022-12-01T09:51:29.863Z,39.33
2022-12-01T09:54:02.219Z,39.50
2022-12-01T09:56:46.921Z,22.00
2022-12-01T09:59:36.084Z,39.33
2022-12-01T10:02:50.578Z,55.67
2022-12-01T10:05:25.530Z,34.67
2022-12-01T10:08:08.487Z,41.00
2022-12-01T10:10:51.430Z,36.00
2022-12-01T10:13:29.665Z,35.50
2022-12-01T10:16:18.526Z,47.33
2022-12-01T10:19:35.002Z,24.00
2022-12-01T10:22:47.829Z,35.33
2022-12-01T10:25:27.108Z,31.33
2022-12-01T10:28:38.611Z,31.50
2022-12-01T10:32:00.308Z,31.00
2022-12-01T10:34:37.024Z,22.33
2022-12-01T10:37:13.933Z,42.00
2022-12-01T10:39:59.408Z,6.00
2022-12-01T10:42:48.533Z,22.00
2022-12-01T10:45:27.621Z,31.00
2022-12-01T10:48:23.603Z,40.50
2022-12-01T10:51:17.412Z,47.33
2022-12-01T10:53:50.370Z,24.33
2022-12-01T10:56:21.754Z,44.50
2022-12-01T10:59:23.672Z,35.67
2022-12-01T11:04:37.207Z,29.00
2022-12-01T11:07:05.897Z,17.00
2022-12-01T11:09:35.462Z,36.67
2022-12-01T11:12:06.174Z,40.00
2022-12-01T11:14:47.954Z,35.50
2022-12-01T11:17:27.644Z,53.50
2022-12-01T11:19:57.312Z,38.00
2022-12-01T11:22:31.390Z,35.67
2022-12-01T11:25:05.697Z,42.33
2022-12-01T11:27:54.901Z,34.67
2022-12-01T11:30:29.485Z,49.67
2022-12-01T11:33:02.871Z,52.67
2022-12-01T11:35:37.036Z,54.00
2022-12-01T11:38:29.202Z,34.33
2022-12-01T11:40:59.948Z,47.00
2022-12-01T11:43:36.787Z,58.00
2022-12-01T11:46:10.066Z,38.33
2022-12-01T11:48:39.795Z,50.00
2022-12-01T11:51:37.198Z,76.00
2022-12-01T11:54:27.576Z,40.00
2022-12-01T11:58:12.577Z,55.00
2022-12-01T11:59:46.626Z,52.33
2022-12-01T12:03:07.111Z,77.75
2022-12-01T12:06:41.028Z,52.00
2022-12-01T12:09:26.861Z,64.25
2022-12-01T12:12:26.856Z,46.00
2022-12-01T12:15:34.459Z,56.00
2022-12-01T12:19:00.665Z,30.00
2022-12-01T12:21:53.468Z,40.00
2022-12-01T12:24:54.339Z,36.00
2022-12-01T12:28:06.843Z,30.00
2022-12-01T12:31:02.864Z,29.67
2022-12-01T12:34:25.946Z,49.67
2022-12-01T12:37:05.318Z,29.00
2022-12-01T12:40:21.871Z,38.00
2022-12-01T12:42:59.342Z,39.33
2022-12-01T12:46:14.216Z,35.67
2022-12-01T12:49:20.779Z,34.00
2022-12-01T12:52:08.915Z,30.67
2022-12-01T12:55:00.636Z,62.50
2022-12-01T12:57:52.509Z,26.00
2022-12-01T13:00:29.563Z,31.50
2022-12-01T13:03:29.222Z,310.50
2022-12-01T13:06:15.004Z,32.67
2022-12-01T13:08:58.531Z,29.67
2022-12-01T13:11:57.993Z,22.00
2022-12-01T13:15:17.161Z,24.00
2022-12-01T13:17:57.995Z,35.00
2022-12-01T13:20:30.595Z,25.33
2022-12-01T13:23:03.149Z,26.67
2022-12-01T13:25:40.761Z,31.50
2022-12-01T13:28:22.457Z,28.67
2022-12-01T13:31:24.618Z,37.00
2022-12-01T13:34:04.485Z,28.33
2022-12-01T13:36:49.942Z,21.50
2022-12-01T13:39:24.427Z,32.00
2022-12-01T13:42:27.543Z,29.00
2022-12-01T13:45:01.254Z,24.00
2022-12-01T13:47:49.928Z,24.67
2022-12-01T13:50:48.759Z,35.67
2022-12-01T13:53:20.037Z,34.00
2022-12-01T13:56:17.516Z,26.50
2022-12-01T13:58:52.987Z,32.00
2022-12-01T14:01:22.048Z,32.00
2022-12-01T14:04:16.074Z,24.00
2022-12-01T14:07:35.287Z,30.00
2022-12-01T14:10:33.198Z,30.00
2022-12-01T14:13:07.696Z,38.67
2022-12-01T14:15:43.599Z,32.67
2022-12-01T14:18:20.479Z,34.33
2022-12-01T14:20:50.348Z,31.67
2022-12-01T14:23:37.409Z,30.00
2022-12-01T14:26:21.243Z,30.00
2022-12-01T14:28:56.444Z,36.00
2022-12-01T14:31:35.446Z,38.00
2022-12-01T14:34:24.478Z,31.00
2022-12-01T14:36:57.883Z,36.67
2022-12-01T14:39:42.434Z,44.00
2022-12-01T14:42:58.643Z,39.33
2022-12-01T14:45:50.017Z,38.00
2022-12-01T14:48:41.889Z,37.00
2022-12-01T14:51:32.471Z,37.00
2022-12-01T14:54:24.171Z,35.33
2022-12-01T14:57:05.687Z,37.67
2022-12-01T14:59:35.534Z,39.00
2022-12-01T15:02:10.088Z,45.67
2022-12-01T15:05:14.586Z,55.00
2022-12-01T15:07:58.823Z,53.00
2022-12-01T15:10:37.094Z,57.00
2022-12-01T15:13:22.090Z,58.67
2022-12-01T15:15:58.987Z,77.25
2022-12-01T15:18:37.190Z,94.00
2022-12-01T15:21:26.149Z,89.00
2022-12-01T15:24:25.164Z,71.33
2022-12-01T15:27:04.125Z,82.67
2022-12-01T15:29:45.697Z,83.00
2022-12-01T15:32:21.122Z,76.33
2022-12-01T15:34:54.826Z,77.67
2022-12-01T15:37:27.961Z,59.33
2022-12-01T15:43:41.550Z,70.00
2022-12-01T15:46:19.472Z,74.00
2022-12-01T15:48:49.125Z,87.67
2022-12-01T15:51:27.196Z,97.75
2022-12-01T15:54:00.400Z,97.00
2022-12-01T15:56:39.730Z,93.33
2022-12-01T15:59:13.078Z,110.00
2022-12-01T16:01:45.255Z,108.50
2022-12-01T16:04:32.365Z,111.75
2022-12-01T16:07:10.489Z,107.00
2022-12-01T16:09:42.597Z,118.00
2022-12-01T16:12:19.994Z,119.71
2022-12-01T16:15:08.730Z,118.50
2022-12-01T16:17:52.728Z,121.50
2022-12-01T16:20:38.656Z,125.00
2022-12-01T16:23:22.529Z,122.75
2022-12-01T16:25:56.613Z,113.50
2022-12-01T16:28:37.798Z,102.50
2022-12-01T16:31:19.652Z,102.67
2022-12-01T16:33:49.377Z,79.33
2022-12-01T16:36:23.934Z,94.00
2022-12-01T16:38:56.182Z,79.33
2022-12-01T16:41:41.253Z,87.00
2022-12-01T16:44:30.885Z,81.00
2022-12-01T16:47:00.477Z,72.33
2022-12-01T16:49:30.533Z,77.00
2022-12-01T16:52:11.104Z,85.67
2022-12-01T16:54:50.557Z,92.00
2022-12-01T16:57:21.347Z,94.25
2022-12-01T16:59:52.896Z,106.75
2022-12-01T17:02:23.340Z,114.00
2022-12-01T17:04:53.187Z,152.75
2022-12-01T17:07:22.983Z,77.67
2022-12-01T17:09:52.588Z,95.33
2022-12-01T17:12:25.344Z,53.50
2022-12-01T17:14:54.914Z,70.00
2022-12-01T17:17:24.510Z,66.67
2022-12-01T17:19:54.024Z,67.67
2022-12-01T17:22:23.540Z,67.33
2022-12-01T17:24:54.959Z,74.67
2022-12-01T17:27:27.741Z,97.00
2022-12-01T17:29:59.925Z,106.75
2022-12-01T17:32:30.514Z,108.25
2022-12-01T17:35:01.046Z,120.50
2022-12-01T17:37:31.529Z,110.50
2022-12-01T17:40:02.196Z,121.25
2022-12-01T17:42:34.085Z,134.00
2022-12-01T17:45:05.380Z,124.75
2022-12-01T17:47:35.921Z,114.00
2022-12-01T17:50:07.587Z,202.00
2022-12-01T17:52:38.178Z,182.00
2022-12-01T17:55:09.459Z,217.00
2022-12-01T17:57:39.027Z,179.50
2022-12-01T18:00:09.826Z,177.75
2022-12-01T18:02:37.637Z,135.50
2022-12-01T18:05:09.133Z,164.75
2022-12-01T18:07:39.780Z,148.50
2022-12-01T18:10:08.244Z,156.00
2022-12-01T18:12:37.800Z,175.75
2022-12-01T18:15:08.643Z,183.50
2022-12-01T18:17:38.699Z,203.00
2022-12-01T18:20:09.536Z,174.00
2022-12-01T18:22:39.242Z,185.33
2022-12-01T18:25:09.407Z,191.25
2022-12-01T18:27:37.345Z,192.00
2022-12-01T18:30:08.604Z,192.25
2022-12-01T18:32:38.348Z,185.00
2022-12-01T18:35:06.761Z,167.50
2022-12-01T18:37:36.969Z,156.25
2022-12-01T18:40:09.439Z,155.00
2022-12-01T18:42:39.182Z,148.00
2022-12-01T18:45:09.532Z,235.75
2022-12-01T18:47:40.047Z,267.75
2022-12-01T18:50:10.833Z,243.00
2022-12-01T18:52:40.442Z,257.50
2022-12-01T18:55:10.262Z,237.25
2022-12-01T18:57:40.741Z,230.50
2022-12-01T19:00:12.635Z,237.00
2022-12-01T19:02:42.392Z,214.67
2022-12-01T19:05:12.121Z,243.00
2022-12-01T19:07:42.679Z,236.00
2022-12-01T19:10:13.323Z,275.50
2022-12-01T19:12:43.000Z,259.33
2022-12-01T19:15:13.839Z,254.25
2022-12-01T19:17:43.572Z,249.00
2022-12-01T19:20:13.651Z,255.00
2022-12-01T19:22:44.213Z,251.75
2022-12-01T19:25:14.086Z,256.00
2022-12-01T19:27:43.791Z,189.67
2022-12-01T19:30:13.980Z,191.00
2022-12-01T19:32:43.626Z,197.50
2022-12-01T19:35:13.287Z,198.75
2022-12-01T19:37:42.981Z,193.75
2022-12-01T19:40:14.341Z,188.75
2022-12-01T19:42:43.987Z,175.75
2022-12-01T19:45:13.603Z,173.50
2022-12-01T19:47:44.719Z,160.00
2022-12-01T19:50:15.336Z,144.75
2022-12-01T19:52:45.800Z,135.75
2022-12-01T19:55:15.498Z,147.75
2022-12-01T19:57:50.269Z,140.50
2022-12-01T20:00:23.570Z,137.50
2022-12-01T20:02:54.418Z,148.50
2022-12-01T20:05:24.875Z,149.25
2022-12-01T20:07:55.413Z,151.50
2022-12-01T20:10:25.139Z,98.67
2022-12-01T20:12:53.008Z,123.00
2022-12-01T20:15:23.483Z,136.25
2022-12-01T20:17:54.082Z,136.25
2022-12-01T20:20:23.688Z,120.50
2022-12-01T20:22:54.153Z,107.00
2022-12-01T20:25:24.809Z,117.25
2022-12-01T20:27:55.301Z,117.75
2022-12-01T20:30:25.858Z,111.25
2022-12-01T20:32:56.951Z,115.25
2022-12-01T20:35:27.474Z,114.50
2022-12-01T20:37:57.136Z,110.33
2022-12-01T20:40:26.848Z,106.33
2022-12-01T20:42:56.453Z,108.33
2022-12-01T20:45:26.374Z,105.00
2022-12-01T20:47:56.028Z,105.00
2022-12-01T20:50:25.907Z,102.33
2022-12-01T20:52:56.485Z,110.75
2022-12-01T20:55:27.193Z,110.50
2022-12-01T20:57:56.842Z,104.67
2022-12-01T21:00:27.254Z,116.00
2022-12-01T21:02:57.919Z,124.00
2022-12-01T21:05:28.442Z,174.50
2022-12-01T21:07:58.273Z,165.50
2022-12-01T21:10:28.547Z,145.50
2022-12-01T21:13:32.868Z,132.00
2022-12-01T21:16:12.370Z,139.00
2022-12-01T21:19:06.612Z,150.50
2022-12-01T21:21:41.768Z,163.00
2022-12-01T21:24:33.557Z,166.50
2022-12-01T21:27:16.706Z,155.50
2022-12-01T21:29:49.891Z,163.25
2022-12-01T21:32:31.561Z,187.25
2022-12-01T21:35:20.817Z,134.00
2022-12-01T21:38:01.893Z,177.25
2022-12-01T21:40:31.711Z,169.50
2022-12-01T21:43:22.718Z,161.75
2022-12-01T21:46:17.514Z,194.50
2022-12-01T21:48:47.221Z,173.00
2022-12-01T21:51:24.965Z,176.00
2022-12-01T21:53:56.665Z,169.00
2022-12-01T21:56:31.783Z,170.25
2022-12-01T21:59:32.007Z,146.00
2022-12-01T22:02:03.528Z,161.50
2022-12-01T22:04:34.093Z,150.75
2022-12-01T22:07:05.319Z,143.25
2022-12-01T22:09:37.137Z,145.50
2022-12-01T22:12:32.108Z,148.00
2022-12-01T22:15:30.649Z,116.25
2022-12-01T22:17:59.227Z,123.00
2022-12-01T22:20:29.932Z,125.50
2022-12-01T22:22:59.586Z,88.00
2022-12-01T22:25:30.039Z,85.00
2022-12-01T22:28:00.259Z,95.00
2022-12-01T22:30:29.847Z,87.33
2022-12-01T22:33:23.217Z,69.67
2022-12-01T22:35:53.894Z,64.67
2022-12-01T22:38:38.407Z,68.00
2022-12-01T22:41:18.944Z,63.67
2022-12-01T22:43:59.598Z,61.00
2022-12-01T22:46:41.506Z,65.00
2022-12-01T22:49:22.407Z,62.67
2022-12-01T22:52:25.807Z,60.33
2022-12-01T22:54:54.501Z,50.00
2022-12-01T22:57:33.309Z,57.33
2022-12-01T23:00:24.171Z,57.67
2022-12-01T23:02:56.790Z,59.33
2022-12-01T23:05:31.688Z,55.67
2022-12-01T23:08:08.327Z,54.67
2022-12-01T23:10:40.366Z,53.00
2022-12-01T23:13:23.394Z,58.00
2022-12-01T23:15:54.293Z,57.00
2022-12-01T23:18:33.328Z,52.00
2022-12-01T23:21:03.901Z,54.50
2022-12-01T23:23:37.645Z,53.67
2022-12-01T23:26:09.354Z,50.50
2022-12-01T23:28:39.374Z,51.50
2022-12-01T23:31:10.295Z,48.67
2022-12-01T23:33:39.839Z,48.67
2022-12-01T23:36:29.157Z,50.67
2022-12-01T23:39:04.922Z,47.00
2022-12-01T23:41:47.754Z,40.00
2022-12-01T23:44:45.546Z,53.67
2022-12-01T23:47:25.421Z,53.00
2022-12-01T23:50:03.030Z,55.00
2022-12-01T23:52:37.618Z,60.67
2022-12-01T23:55:29.037Z,68.67
2022-12-01T23:58:01.905Z,55.00
